Temporibus — INIJ2 — position and weather

sailwx.info

Track history (hours):
 
Tides and Currents Weather Stations Pressure Air Temp Water Temp Dewpoint Dewpoint Depression Visibility Wind Speed Wind Dir Waves Ship Positions

Temporibus

Last reported at 2018-Jun-22 09:00 UTC. Time now 2018-Jun-22 09:02 UTC.
Position N 36°59' E 014°08'.

Length 16 m; draft 2.5 m.

Type: Pollution control. MMSI: 247363600.

Date/timePositionNaut miles runAvg speedWind from/ knotsBaromVisibWave heightAir tempDewpointWater temp
2018-Jun-22 09:00N 36°59' E 014°08'2 4.8
2018-Jun-22 08:30N 36°58' E 014°11'2 3.6
2018-Jun-22 08:00N 36°57' E 014°13'2 4.8
2018-Jun-22 07:30N 36°59' E 014°14'2 5.0
2018-Jun-22 07:00N 37°02' E 014°16'1 1.6
2018-Jun-22 06:28N 37°02' E 014°15'0 0.2
2018-Jun-22 05:59N 37°02' E 014°15'  
2018-Jun-19 13:43N 37°02' E 014°15'1 3.8
2018-Jun-19 13:30N 37°02' E 014°16'1 2.6
2018-Jun-19 13:00N 37°01' E 014°15'3 5.8
2018-Jun-19 12:30N 36°58' E 014°14'2 3.0
2018-Jun-19 12:00N 36°58' E 014°12'2 3.7
2018-Jun-19 11:30N 36°58' E 014°10'2 4.0
2018-Jun-19 11:00N 36°59' E 014°07'2 4.0
2018-Jun-19 10:30N 36°60' E 014°05'2 4.0
2018-Jun-19 10:00N 37°00' E 014°03'2 3.9
2018-Jun-19 09:30N 36°60' E 014°05'2 4.6
2018-Jun-19 09:00N 36°59' E 014°08'2 4.7
2018-Jun-19 08:30N 36°58' E 014°10'2 4.5
2018-Jun-19 08:00N 36°57' E 014°13'2 4.7
2018-Jun-19 07:30N 36°60' E 014°15'2 4.8
2018-Jun-19 07:00N 37°02' E 014°16'1 1.6
2018-Jun-19 06:28N 37°02' E 014°15'0 0.0
2018-Jun-18 14:35N 37°02' E 014°15'0 0.0
2018-Jun-18 14:29N 37°02' E 014°15'0 0.0
2018-Jun-18 13:59N 37°02' E 014°15'0 0.0
2018-Jun-18 13:29N 37°02' E 014°15'0 0.7
2018-Jun-18 13:00N 37°02' E 014°15'1 2.6
2018-Jun-18 12:30N 37°01' E 014°15'3 6.5
2018-Jun-18 12:00N 36°58' E 014°13'2 4.2
2018-Jun-18 11:29N 36°58' E 014°11'2 4.4
2018-Jun-18 11:00N 36°59' E 014°08'2 4.5
2018-Jun-18 10:30N 36°60' E 014°06'2 4.6
2018-Jun-18 10:00N 37°00' E 014°03'1 2.9
2018-Jun-18 09:29N 36°60' E 014°05'2 4.3
2018-Jun-18 09:00N 36°59' E 014°07'2 4.7
2018-Jun-18 08:30N 36°58' E 014°10'2 4.8
2018-Jun-18 08:00N 36°57' E 014°13'2 4.0
2018-Jun-18 07:30N 36°59' E 014°14'2 4.8
2018-Jun-18 07:00N 37°01' E 014°16'1 1.4
2018-Jun-18 06:30N 37°02' E 014°16'1 0.0
2018-Jun-16 10:56N 37°02' E 014°15'0 0.0
2018-Jun-16 10:29N 37°02' E 014°15'0 0.0
2018-Jun-16 09:59N 37°02' E 014°15'1 1.1
2018-Jun-16 09:31N 37°02' E 014°16'1 1.3
2018-Jun-16 09:00N 37°01' E 014°16'3 5.3
2018-Jun-16 08:30N 36°59' E 014°14'2 3.1
2018-Jun-16 08:00N 36°57' E 014°13'3 5.0
2018-Jun-16 07:27N 36°60' E 014°15'2 5.4
2018-Jun-16 07:00N 37°02' E 014°16'1 2.0
2018-Jun-16 06:28N 37°02' E 014°15'0 0.0
2018-Jun-16 05:58N 37°02' E 014°15'0 0.0
2018-Jun-15 14:17N 37°02' E 014°15'0 0.0
2018-Jun-15 13:59N 37°02' E 014°15'0 0.0
2018-Jun-15 13:29N 37°02' E 014°15'0 0.0
2018-Jun-15 12:59N 37°02' E 014°15'0 0.0
2018-Jun-15 12:29N 37°02' E 014°15'0 0.0
2018-Jun-15 11:59N 37°02' E 014°15'0 0.0
2018-Jun-15 11:29N 37°02' E 014°15'0 0.0
2018-Jun-15 10:59N 37°02' E 014°15'0 0.0
2018-Jun-15 10:29N 37°02' E 014°15'0 0.0
2018-Jun-15 09:59N 37°02' E 014°15'1 2.2
2018-Jun-15 09:30N 37°02' E 014°16'2 3.1
2018-Jun-15 09:00N 37°01' E 014°15'3 5.2
2018-Jun-15 08:30N 36°59' E 014°13'2 3.3
2018-Jun-15 08:00N 36°57' E 014°13'2 3.9
2018-Jun-15 07:30N 36°59' E 014°14'3 5.3
2018-Jun-15 07:00N 37°01' E 014°16'1 1.7
2018-Jun-15 06:30N 37°02' E 014°15'  
2018-Jun-12 14:07N 37°02' E 014°15'0 0.0
2018-Jun-12 14:00N 37°02' E 014°15'1 2.2
2018-Jun-12 13:30N 37°02' E 014°16'2 3.9
2018-Jun-12 13:00N 37°00' E 014°16'2 4.3
2018-Jun-12 12:30N 36°58' E 014°14'2 3.6
2018-Jun-12 12:00N 36°58' E 014°12'2 4.6
2018-Jun-12 11:30N 36°58' E 014°09'2 4.6
2018-Jun-12 11:00N 36°59' E 014°07'2 4.5
2018-Jun-12 10:30N 37°00' E 014°04'1 1.0
2018-Jun-12 09:59N 37°00' E 014°04'2 4.2
2018-Jun-12 09:30N 36°60' E 014°06'2 4.2
2018-Jun-12 09:00N 36°59' E 014°09'  
Track history (hours):
 
Tides and Currents Weather Stations Pressure Air Temp Water Temp Dewpoint Dewpoint Depression Visibility Wind Speed Wind Dir Waves Ship Positions

Temporibus

Last reported at 2018-Jun-22 09:00 UTC. Time now 2018-Jun-22 09:02 UTC.
Position N 36°59' E 014°08'.

Length 16 m; draft 2.5 m.

Type: Pollution control. MMSI: 247363600.

Date/timePositionNaut miles runAvg speedWind from/ knotsBaromVisibWave heightAir tempDewpointWater temp
2018-Jun-22 09:00N 36°59' E 014°08'2 4.8
2018-Jun-22 08:30N 36°58' E 014°11'2 3.6
2018-Jun-22 08:00N 36°57' E 014°13'2 4.8
2018-Jun-22 07:30N 36°59' E 014°14'2 5.0
2018-Jun-22 07:00N 37°02' E 014°16'1 1.6
2018-Jun-22 06:28N 37°02' E 014°15'0 0.2
2018-Jun-22 05:59N 37°02' E 014°15'  
2018-Jun-19 13:43N 37°02' E 014°15'1 3.8
2018-Jun-19 13:30N 37°02' E 014°16'1 2.6
2018-Jun-19 13:00N 37°01' E 014°15'3 5.8
2018-Jun-19 12:30N 36°58' E 014°14'2 3.0
2018-Jun-19 12:00N 36°58' E 014°12'2 3.7
2018-Jun-19 11:30N 36°58' E 014°10'2 4.0
2018-Jun-19 11:00N 36°59' E 014°07'2 4.0
2018-Jun-19 10:30N 36°60' E 014°05'2 4.0
2018-Jun-19 10:00N 37°00' E 014°03'2 3.9
2018-Jun-19 09:30N 36°60' E 014°05'2 4.6
2018-Jun-19 09:00N 36°59' E 014°08'2 4.7
2018-Jun-19 08:30N 36°58' E 014°10'2 4.5
2018-Jun-19 08:00N 36°57' E 014°13'2 4.7
2018-Jun-19 07:30N 36°60' E 014°15'2 4.8
2018-Jun-19 07:00N 37°02' E 014°16'1 1.6
2018-Jun-19 06:28N 37°02' E 014°15'0 0.0
2018-Jun-18 14:35N 37°02' E 014°15'0 0.0
2018-Jun-18 14:29N 37°02' E 014°15'0 0.0
2018-Jun-18 13:59N 37°02' E 014°15'0 0.0
2018-Jun-18 13:29N 37°02' E 014°15'0 0.7
2018-Jun-18 13:00N 37°02' E 014°15'1 2.6
2018-Jun-18 12:30N 37°01' E 014°15'3 6.5
2018-Jun-18 12:00N 36°58' E 014°13'2 4.2
2018-Jun-18 11:29N 36°58' E 014°11'2 4.4
2018-Jun-18 11:00N 36°59' E 014°08'2 4.5
2018-Jun-18 10:30N 36°60' E 014°06'2 4.6
2018-Jun-18 10:00N 37°00' E 014°03'1 2.9
2018-Jun-18 09:29N 36°60' E 014°05'2 4.3
2018-Jun-18 09:00N 36°59' E 014°07'2 4.7
2018-Jun-18 08:30N 36°58' E 014°10'2 4.8
2018-Jun-18 08:00N 36°57' E 014°13'2 4.0
2018-Jun-18 07:30N 36°59' E 014°14'2 4.8
2018-Jun-18 07:00N 37°01' E 014°16'1 1.4
2018-Jun-18 06:30N 37°02' E 014°16'1 0.0
2018-Jun-16 10:56N 37°02' E 014°15'0 0.0
2018-Jun-16 10:29N 37°02' E 014°15'0 0.0
2018-Jun-16 09:59N 37°02' E 014°15'1 1.1
2018-Jun-16 09:31N 37°02' E 014°16'1 1.3
2018-Jun-16 09:00N 37°01' E 014°16'3 5.3
2018-Jun-16 08:30N 36°59' E 014°14'2 3.1
2018-Jun-16 08:00N 36°57' E 014°13'3 5.0
2018-Jun-16 07:27N 36°60' E 014°15'2 5.4
2018-Jun-16 07:00N 37°02' E 014°16'1 2.0
2018-Jun-16 06:28N 37°02' E 014°15'0 0.0
2018-Jun-16 05:58N 37°02' E 014°15'0 0.0
2018-Jun-15 14:17N 37°02' E 014°15'0 0.0
2018-Jun-15 13:59N 37°02' E 014°15'0 0.0
2018-Jun-15 13:29N 37°02' E 014°15'0 0.0
2018-Jun-15 12:59N 37°02' E 014°15'0 0.0
2018-Jun-15 12:29N 37°02' E 014°15'0 0.0
2018-Jun-15 11:59N 37°02' E 014°15'0 0.0
2018-Jun-15 11:29N 37°02' E 014°15'0 0.0
2018-Jun-15 10:59N 37°02' E 014°15'0 0.0
2018-Jun-15 10:29N 37°02' E 014°15'0 0.0
2018-Jun-15 09:59N 37°02' E 014°15'1 2.2
2018-Jun-15 09:30N 37°02' E 014°16'2 3.1
2018-Jun-15 09:00N 37°01' E 014°15'3 5.2
2018-Jun-15 08:30N 36°59' E 014°13'2 3.3
2018-Jun-15 08:00N 36°57' E 014°13'2 3.9
2018-Jun-15 07:30N 36°59' E 014°14'3 5.3
2018-Jun-15 07:00N 37°01' E 014°16'1 1.7
2018-Jun-15 06:30N 37°02' E 014°15'  
2018-Jun-12 14:07N 37°02' E 014°15'0 0.0
2018-Jun-12 14:00N 37°02' E 014°15'1 2.2
2018-Jun-12 13:30N 37°02' E 014°16'2 3.9
2018-Jun-12 13:00N 37°00' E 014°16'2 4.3
2018-Jun-12 12:30N 36°58' E 014°14'2 3.6
2018-Jun-12 12:00N 36°58' E 014°12'2 4.6
2018-Jun-12 11:30N 36°58' E 014°09'2 4.6
2018-Jun-12 11:00N 36°59' E 014°07'2 4.5
2018-Jun-12 10:30N 37°00' E 014°04'1 1.0
2018-Jun-12 09:59N 37°00' E 014°04'2 4.2
2018-Jun-12 09:30N 36°60' E 014°06'2 4.2
2018-Jun-12 09:00N 36°59' E 014°09'  

Dump ship's entire track history